Time;durP1;ratioP1;P1;durP2;ratioP2;P2;SDS_P1;SDS_P2;PMS_P1;PMS_P2;Temp;Humidity;BMP_temperature;BMP_pressure;BME280_temperature;BME280_humidity;BME280_pressure;Samples;Min_cycle;Max_cycle;Signal;HPM_P1;HPM_P2
2021/08/29 11:57:50;;;;;;;5.10;4.80;;;14.40;99.90;;;;;;5070725;28;20546;-74
2021/08/29 12:00:18;;;;;;;6.20;5.72;;;14.60;99.90;;;;;;5070899;28;20621;-75
2021/08/29 12:02:45;;;;;;;5.88;5.47;;;14.60;99.90;;;;;;5070682;28;20165;-75
2021/08/29 12:05:13;;;;;;;5.50;5.10;;;14.70;99.90;;;;;;5070620;28;20243;-75
2021/08/29 12:07:47;;;;;;;5.20;4.90;;;14.80;99.90;;;;;;5070411;28;20246;-75
2021/08/29 12:10:15;;;;;;;5.15;4.85;;;15.00;99.90;;;;;;5070649;28;20161;-75
2021/08/29 12:12:48;;;;;;;6.05;5.60;;;15.00;99.90;;;;;;5070400;28;20196;-75
2021/08/29 12:15:14;;;;;;;5.60;5.30;;;15.10;99.90;;;;;;5070577;28;20172;-75
2021/08/29 12:17:41;;;;;;;5.28;4.90;;;15.10;99.90;;;;;;5070829;28;20283;-75
2021/08/29 12:20:09;;;;;;;4.97;4.78;;;15.00;99.90;;;;;;5070992;28;20165;-75
2021/08/29 12:22:36;;;;;;;5.53;5.22;;;15.00;99.90;;;;;;5070490;28;20168;-75
2021/08/29 12:25:04;;;;;;;5.75;5.45;;;14.90;99.90;;;;;;5070666;28;20537;-75
2021/08/29 12:27:30;;;;;;;4.40;4.20;;;14.90;99.90;;;;;;5070317;28;20171;-75
2021/08/29 12:30:00;;;;;;;4.30;4.10;;;14.80;99.90;;;;;;5070365;28;20191;-75
2021/08/29 12:32:28;;;;;;;4.18;3.97;;;14.70;99.90;;;;;;5068996;28;20529;-75
2021/08/29 12:34:59;;;;;;;4.95;4.65;;;14.70;99.90;;;;;;5070007;28;20520;-75
2021/08/29 12:37:27;;;;;;;3.63;3.42;;;14.80;99.90;;;;;;5068597;28;20727;-75
2021/08/29 12:40:06;;;;;;;3.83;3.63;;;14.80;99.90;;;;;;5069839;28;20639;-76
2021/08/29 12:42:37;;;;;;;4.32;3.92;;;14.80;99.90;;;;;;5070085;28;20173;-76
2021/08/29 12:45:08;;;;;;;3.78;3.42;;;14.90;99.90;;;;;;5069733;28;20195;-75
2021/08/29 12:47:34;;;;;;;3.50;3.30;;;14.90;99.90;;;;;;5069984;28;20168;-76
2021/08/29 12:50:01;;;;;;;3.60;3.40;;;15.00;99.90;;;;;;5069940;28;20173;-75
2021/08/29 12:52:40;;;;;;;3.78;3.58;;;15.10;99.90;;;;;;5069689;28;20164;-75
2021/08/29 12:55:13;;;;;;;3.15;3.05;;;15.20;99.90;;;;;;5069650;28;20165;-75
2021/08/29 12:57:39;;;;;;;2.88;2.78;;;15.30;99.90;;;;;;5069217;28;20220;-75
2021/08/29 13:00:05;;;;;;;3.22;2.92;;;15.50;99.90;;;;;;5069574;28;20188;-75
2021/08/29 13:02:38;;;;;;;2.55;2.40;;;15.80;99.90;;;;;;5069387;28;20736;-75
2021/08/29 13:05:05;;;;;;;2.50;2.30;;;15.90;99.90;;;;;;5069327;28;20177;-75
2021/08/29 13:07:55;;;;;;;2.03;1.92;;;16.00;99.90;;;;;;5063686;28;20196;-76
2021/08/29 13:10:22;;;;;;;2.00;1.90;;;16.10;99.90;;;;;;5056003;28;20192;-75
2021/08/29 13:13:03;;;;;;;2.00;1.90;;;15.90;99.90;;;;;;5054686;28;20179;-76
2021/08/29 13:15:29;;;;;;;2.33;2.20;;;15.80;99.90;;;;;;5055861;28;20211;-76
2021/08/29 13:17:55;;;;;;;2.33;1.83;;;15.90;99.90;;;;;;5054696;28;20626;-76
2021/08/29 13:20:20;;;;;;;1.58;1.58;;;15.90;99.90;;;;;;5055815;28;20177;-76
2021/08/29 13:22:48;;;;;;;1.50;1.50;;;15.90;99.90;;;;;;5055846;28;20721;-76
2021/08/29 13:25:20;;;;;;;1.83;1.70;;;15.90;99.90;;;;;;5055766;28;20161;-76
2021/08/29 13:27:49;;;;;;;2.00;2.00;;;15.80;99.90;;;;;;5055729;28;20169;-76
2021/08/29 13:30:19;;;;;;;1.70;1.70;;;15.90;99.90;;;;;;5055666;28;20569;-76
2021/08/29 13:32:45;;;;;;;2.08;1.90;;;15.80;99.90;;;;;;5055624;28;20299;-76
2021/08/29 13:35:16;;;;;;;1.80;1.80;;;15.90;99.90;;;;;;5055630;28;20169;-76
2021/08/29 13:37:44;;;;;;;1.73;1.73;;;15.80;99.90;;;;;;5055514;28;20211;-76
2021/08/29 13:40:12;;;;;;;1.90;1.80;;;15.70;99.90;;;;;;5055506;28;20625;-76
2021/08/29 13:42:39;;;;;;;1.88;1.77;;;15.50;99.90;;;;;;5055458;28;20223;-76
2021/08/29 13:45:10;;;;;;;2.17;2.08;;;15.50;99.90;;;;;;5055353;28;20192;-76
2021/08/29 13:47:35;;;;;;;2.33;2.10;;;15.40;99.90;;;;;;5055427;28;20164;-76
2021/08/29 13:50:01;;;;;;;2.47;2.25;;;15.40;99.90;;;;;;5055375;28;20636;-76
2021/08/29 13:52:36;;;;;;;2.50;2.40;;;15.40;99.90;;;;;;5055326;28;20184;-76
2021/08/29 13:55:02;;;;;;;2.60;2.50;;;15.30;99.90;;;;;;5055184;28;20172;-76
2021/08/29 13:57:28;;;;;;;3.35;3.25;;;15.30;99.90;;;;;;5054976;28;20228;-76
2021/08/29 13:59:53;;;;;;;2.65;2.50;;;15.20;99.90;;;;;;5055207;28;20173;-76
2021/08/29 14:02:19;;;;;;;3.22;3.13;;;15.20;99.90;;;;;;5055412;28;20786;-76
2021/08/29 14:04:46;;;;;;;3.20;3.10;;;15.20;99.90;;;;;;5055192;28;20176;-76
2021/08/29 14:07:12;;;;;;;3.40;3.20;;;15.20;99.90;;;;;;5054996;28;20169;-76
2021/08/29 14:09:37;;;;;;;3.60;3.40;;;15.20;99.90;;;;;;5053756;28;20381;-76
2021/08/29 14:12:04;;;;;;;3.80;3.60;;;15.30;99.90;;;;;;5054883;28;20646;-76
2021/08/29 14:14:29;;;;;;;4.28;3.97;;;15.30;99.90;;;;;;5054812;28;20255;-76
2021/08/29 14:16:55;;;;;;;4.28;4.07;;;15.30;99.90;;;;;;5054761;28;20662;-76
2021/08/29 14:19:21;;;;;;;5.25;4.85;;;15.30;99.90;;;;;;5053710;28;20527;-75
2021/08/29 14:21:46;;;;;;;4.90;4.30;;;15.30;99.90;;;;;;5054681;28;20200;-75
2021/08/29 14:24:12;;;;;;;4.18;3.97;;;15.30;99.90;;;;;;5054645;28;20169;-75
2021/08/29 14:26:38;;;;;;;4.60;4.32;;;15.30;99.90;;;;;;5054570;28;20656;-76
2021/08/29 14:29:03;;;;;;;4.53;4.22;;;15.30;99.90;;;;;;5054527;28;20169;-75
2021/08/29 14:31:29;;;;;;;4.60;4.30;;;15.30;99.90;;;;;;5054549;28;20207;-75
2021/08/29 14:33:55;;;;;;;5.03;4.40;;;15.30;99.90;;;;;;5054486;28;20176;-75
2021/08/29 14:36:21;;;;;;;5.65;5.13;;;15.30;99.90;;;;;;5054158;28;20193;-75
2021/08/29 14:38:46;;;;;;;5.10;4.72;;;15.30;99.90;;;;;;5054350;28;20724;-75
2021/08/29 14:41:12;;;;;;;5.35;5.05;;;15.20;99.90;;;;;;5053019;28;20254;-75
2021/08/29 14:43:40;;;;;;;5.78;5.43;;;15.20;99.90;;;;;;5054100;28;20185;-75
2021/08/29 14:46:06;;;;;;;5.75;5.38;;;15.10;99.90;;;;;;5054190;28;20223;-75
2021/08/29 14:48:31;;;;;;;7.32;6.63;;;15.10;99.90;;;;;;5054198;28;20169;-75
2021/08/29 14:50:57;;;;;;;6.03;5.63;;;15.10;99.90;;;;;;5054199;28;20169;-76
2021/08/29 14:53:23;;;;;;;6.00;5.68;;;15.10;99.90;;;;;;5054170;28;20817;-76
2021/08/29 14:55:48;;;;;;;6.25;5.75;;;15.10;99.90;;;;;;5053780;28;20209;-76
2021/08/29 14:58:14;;;;;;;6.55;5.57;;;15.10;99.90;;;;;;5054029;28;20165;-76
2021/08/29 15:00:39;;;;;;;5.80;5.50;;;15.20;99.90;;;;;;5053992;28;20168;-75
2021/08/29 15:03:05;;;;;;;6.50;6.03;;;15.20;99.90;;;;;;5053897;28;20226;-76
2021/08/29 15:05:31;;;;;;;6.20;5.80;;;15.10;99.90;;;;;;5053913;28;20173;-76
2021/08/29 15:07:57;;;;;;;6.43;5.93;;;15.20;99.90;;;;;;5053881;28;20169;-75
2021/08/29 15:10:24;;;;;;;5.65;5.35;;;15.30;99.90;;;;;;5053889;28;20172;-76
2021/08/29 15:12:50;;;;;;;5.32;4.93;;;15.40;99.90;;;;;;5053843;28;20238;-75
2021/08/29 15:15:16;;;;;;;4.88;4.53;;;15.40;99.90;;;;;;5053783;28;20623;-75
2021/08/29 15:17:42;;;;;;;5.20;4.85;;;15.40;99.90;;;;;;5053695;28;20203;-76
2021/08/29 15:20:08;;;;;;;5.38;4.90;;;15.50;99.90;;;;;;5052510;28;20591;-76
2021/08/29 15:22:34;;;;;;;5.32;5.00;;;15.50;99.90;;;;;;5053721;28;20195;-75
2021/08/29 15:25:00;;;;;;;5.10;4.70;;;15.60;99.90;;;;;;5053577;28;20168;-76
2021/08/29 15:27:28;;;;;;;5.72;4.97;;;15.60;99.90;;;;;;5053583;28;20245;-76
2021/08/29 15:29:53;;;;;;;5.43;4.95;;;15.60;99.90;;;;;;5053522;28;20173;-76
2021/08/29 15:32:19;;;;;;;5.03;4.68;;;15.60;99.90;;;;;;5052066;28;20177;-76
2021/08/29 15:34:45;;;;;;;4.95;4.55;;;15.60;99.90;;;;;;5053554;28;20176;-76
2021/08/29 15:37:14;;;;;;;5.78;5.38;;;15.60;99.90;;;;;;5053356;28;20565;-76
2021/08/29 15:39:40;;;;;;;4.75;4.55;;;15.60;99.90;;;;;;5053454;28;20192;-76
2021/08/29 15:42:08;;;;;;;5.05;4.75;;;15.50;99.90;;;;;;5053297;28;20626;-76
2021/08/29 16:04:36;;;;;;;6.85;6.30;;;15.40;99.90;;;;;;5091066;28;20575;-75
2021/08/29 16:07:02;;;;;;;6.88;6.35;;;15.50;99.90;;;;;;5089747;28;20211;-75
2021/08/29 16:09:28;;;;;;;6.50;5.93;;;15.50;99.90;;;;;;5090952;28;20190;-76
2021/08/29 16:11:53;;;;;;;6.22;5.82;;;15.60;99.90;;;;;;5089767;28;20539;-75
2021/08/29 16:14:19;;;;;;;6.60;5.60;;;15.50;99.90;;;;;;5089266;28;20175;-75
2021/08/29 16:16:44;;;;;;;4.85;4.55;;;15.50;99.90;;;;;;5090784;28;20180;-75
2021/08/29 17:21:31;;;;;;;6.55;6.05;;;15.00;99.90;;;;;;5091037;28;20546;-68
2021/08/29 17:23:57;;;;;;;7.20;6.60;;;15.10;99.90;;;;;;5091162;28;20198;-68
2021/08/29 17:26:22;;;;;;;7.30;6.70;;;15.30;99.90;;;;;;5091137;28;20200;-68
2021/08/29 17:28:48;;;;;;;6.47;5.97;;;15.40;99.90;;;;;;5091196;28;20160;-68
2021/08/29 17:31:15;;;;;;;6.55;6.05;;;15.50;99.90;;;;;;5091003;28;20163;-68
2021/08/29 17:33:42;;;;;;;7.18;6.50;;;15.50;99.90;;;;;;5091072;28;20250;-68
2021/08/29 17:36:09;;;;;;;9.23;5.88;;;15.40;99.90;;;;;;5089920;28;20172;-68
2021/08/29 17:38:35;;;;;;;5.82;5.40;;;15.40;99.90;;;;;;5090796;28;20667;-68
2021/08/29 17:41:01;;;;;;;7.25;6.68;;;15.30;99.90;;;;;;5090929;28;20204;-68
2021/08/29 17:43:27;;;;;;;7.00;6.47;;;15.40;99.90;;;;;;5090852;28;20168;-69
2021/08/29 17:45:53;;;;;;;7.07;6.60;;;15.30;99.90;;;;;;5090739;28;20670;-69
2021/08/29 17:48:19;;;;;;;8.45;7.65;;;15.30;99.90;;;;;;5091108;28;20579;-69
